Archival Weather

Norman Y Mineta San Jose Intl

San Jose, California (KSJC)

Report from: Saturday, September 30, 2023 8:53 PM PDT
Current time: Thursday, July 18, 2024 8:02 PM PDT

Current weather – Weather history – Daily summaries
Weather forecast

Temperature16.1°C (61.0°F)
Dew point10.6°C (51.1°F)
Winds Calm
Visibility10 mi. (16.1 km)
Clouds Few clouds 2,400 ft. (732 m)
Ceiling: Broken clouds 3,400 ft. (1,036 m)
Altimeter29.82 in.Hg (1010 mB)
Relative humidity70 %
Density altitude434 ft. (132 m)
Sea-level pressure101.0 kPa (1010 mB, 29.81 in.Hg)
Remarks Automated weather observing station with precipitation discriminator
Flight conditions Visual Meteorological Conditions
Raw dataKSJC 010353Z 00000KT 10SM FEW024 BKN034 16/11 A2982 RMK AO2 SLP096 T01610106
An error has occurred. This application may no longer respond until reloaded. Reload 🗙